. : TABULKA : . . : GRAFY : . . : METAR : .


.: METAR informace z letišť v ČR :.

LKPR - Prague/Ruzyne, Czech Republic
Distance from station: WNW 188km
Updated: Sun, 27-May-2018 9:00am CEST
Clear
Clear
 Wind from varies
Wind: varies 4 km/h
Temperature: 21°C
Dew Point: 14°C
Humidity: 64%
Barometer: 1021 hPa
Summary: Clear
Visibility: greater than 10 km
2018/05/27 07:00 LKPR 270700Z VRB02KT CAVOK 21/14 Q1021 NOSIG
LKTB - Brno/Turany, Czech Republic
Distance from station: S 28km
Updated: Sun, 27-May-2018 9:00am CEST
Clear
Clear
 Wind from E
Wind: E 15 km/h
Temperature: 22°C
Dew Point: 14°C
Humidity: 61%
Barometer: 1021 hPa
Summary: Clear
Visibility: greater than 10 km
2018/05/27 07:00 LKTB 270700Z 08008KT 010V130 CAVOK 22/14 Q1021 NOSIG
 
LKMT - Ostrava/Mosnov, Czech Republic
Distance from station: ENE 112km
Updated: Sun, 27-May-2018 9:00am CEST
Clear
Clear
 Wind from NNE
Wind: NNE 6 km/h
Temperature: 20°C
Dew Point: 14°C
Humidity: 69%
Barometer: 1022 hPa
Summary: Clear
Visibility: greater than 10 km
2018/05/27 07:00 LKMT 270700Z 03003KT 360V080 CAVOK 20/14 Q1022 NOSIG
LKPD - Pardubice, Czech Republic
Distance from station: NW 96km
Updated: Sun, 27-May-2018 9:00am CEST
Clear
Clear
 Wind from varies
Wind: varies 4 km/h
Temperature: 22°C
Dew Point: 12°C
Humidity: 53%
Barometer: 1021 hPa
Summary: Clear
Visibility: greater than 10 km
2018/05/27 07:00 LKPD 270700Z VRB02KT CAVOK 22/12 Q1021 NOSIG RMK BLU BLU
 
LKNA - Namest, Czech Republic
Distance from station: WSW 45km
Updated: Sun, 27-May-2018 9:00am CEST
Clear
Clear
 Wind from E
Wind: E 11 km/h
Temperature: 20°C
Dew Point: 13°C
Humidity: 64%
Barometer: 1022 hPa
Summary: Clear
Visibility: greater than 10 km
2018/05/27 07:00 LKNA 270700Z 08006KT CAVOK 20/13 Q1022 NOSIG RMK BLU BLU
LKKU - Kunovice, Czech Republic
Distance from station: ESE 70km
Updated: Fri, 25-May-2018 4:00pm CEST
NOT Current
Partly Cloudy
Partly Cloudy
 Wind from S
Wind: S 7 km/h
Temperature: 22°C
Dew Point: 15°C
Humidity: 65%
Barometer: 1017 hPa
Clouds: Partly Cloudy
Visibility: 10 km
Cloud details: Partly Cloudy 914 m
2018/05/25 14:00 LKKU 251400Z 18004KT 9999 SCT030 22/15 Q1017
 
LKCV - Caslav, Czech Republic
Distance from station: NW 109km
Updated: Sun, 27-May-2018 9:00am CEST
Clear
Clear
 Wind from varies
Wind: varies 2 km/h
Temperature: 22°C
Dew Point: 14°C
Humidity: 61%
Barometer: 1021 hPa
Summary: Clear
Visibility: greater than 10 km
2018/05/27 07:00 LKCV 270700Z VRB01KT CAVOK 22/14 Q1021 NOSIG RMK BLU BLU
LKKB - Kbely, Czech Republic
Distance from station: WNW 171km
Updated: Sun, 27-May-2018 9:00am CEST
Clear
Clear
 Wind from NE
Wind: NE 7 km/h
Temperature: 20°C
Dew Point: 13°C
Humidity: 64%
Barometer: 1021 hPa
Summary: Clear
Visibility: greater than 10 km
2018/05/27 07:00 LKKB 270700Z 04004KT 350V070 CAVOK 20/13 Q1021 NOSIG
 
LKVO - Vodochody, Czech Republic
Distance from station: WNW 185km
Updated: Fri, 25-May-2018 2:00pm CEST
NOT Current
Clear
Clear
 Wind from SE
Wind: SE 11 km/h
Temperature: 24°C
Dew Point: 10°C
Humidity: 41%
Barometer: 1019 hPa
Summary: Clear
Visibility: greater than 10 km
2018/05/25 12:00 LKVO 251200Z 14006KT 080V190 CAVOK 24/10 Q1019

Metar display script from Saratoga-Weather.org